createdAt,value
2022-10-14T00:00:33.801Z,6.68
2022-10-14T00:03:20.660Z,8.38
2022-10-14T00:05:48.557Z,11.30
2022-10-14T00:08:15.384Z,9.10
2022-10-14T00:10:42.295Z,9.88
2022-10-14T00:13:09.590Z,14.13
2022-10-14T00:15:40.749Z,14.05
2022-10-14T00:18:09.822Z,21.38
2022-10-14T00:20:36.967Z,28.98
2022-10-14T00:23:03.979Z,13.07
2022-10-14T00:25:31.029Z,14.13
2022-10-14T00:27:58.142Z,6.47
2022-10-14T00:30:25.044Z,9.52
2022-10-14T00:32:51.934Z,21.45
2022-10-14T00:35:19.347Z,75.88
2022-10-14T00:37:46.315Z,19.02
2022-10-14T00:40:13.479Z,7.72
2022-10-14T00:42:40.561Z,6.97
2022-10-14T00:45:13.769Z,6.75
2022-10-14T00:47:42.871Z,7.03
2022-10-14T00:50:12.111Z,10.48
2022-10-14T00:52:39.034Z,11.55
2022-10-14T00:55:14.118Z,9.18
2022-10-14T00:57:41.360Z,8.25
2022-10-14T01:00:14.200Z,6.97
2022-10-14T01:02:41.221Z,7.00
2022-10-14T01:05:10.330Z,8.35
2022-10-14T01:08:03.271Z,7.88
2022-10-14T01:10:44.438Z,7.20
2022-10-14T01:13:20.490Z,7.88
2022-10-14T01:15:55.173Z,12.60
2022-10-14T01:18:43.041Z,7.80
2022-10-14T01:21:15.125Z,14.00
2022-10-14T01:23:57.273Z,16.05
2022-10-14T01:26:24.328Z,16.92
2022-10-14T01:29:13.678Z,23.17
2022-10-14T01:31:45.558Z,19.60
2022-10-14T01:34:14.373Z,9.85
2022-10-14T01:36:48.839Z,14.32
2022-10-14T01:39:24.183Z,15.95
2022-10-14T01:42:21.824Z,12.75
2022-10-14T01:44:57.627Z,8.27
2022-10-14T01:47:26.747Z,8.45
2022-10-14T01:50:18.614Z,7.30
2022-10-14T01:52:59.682Z,6.93
2022-10-14T01:55:27.920Z,13.57
2022-10-14T01:57:56.769Z,11.23
2022-10-14T02:00:24.759Z,12.68
2022-10-14T02:02:51.653Z,12.82
2022-10-14T02:05:36.456Z,8.00
2022-10-14T02:08:21.141Z,7.07
2022-10-14T02:11:05.999Z,10.63
2022-10-14T02:13:49.184Z,9.82
2022-10-14T02:16:27.910Z,9.38
2022-10-14T02:19:13.297Z,8.75
2022-10-14T02:21:44.608Z,8.38
2022-10-14T02:24:38.430Z,9.05
2022-10-14T02:27:09.447Z,7.05
2022-10-14T02:29:39.106Z,7.90
2022-10-14T02:32:06.702Z,7.25
2022-10-14T02:34:36.102Z,7.53
2022-10-14T02:37:03.750Z,8.40
2022-10-14T02:39:36.501Z,7.97
2022-10-14T02:42:05.498Z,8.43
2022-10-14T02:44:34.771Z,8.60
2022-10-14T02:47:01.738Z,8.00
2022-10-14T02:49:30.242Z,8.13
2022-10-14T02:51:57.364Z,8.30
2022-10-14T02:54:24.301Z,7.38
2022-10-14T02:56:51.584Z,8.10
2022-10-14T02:59:18.670Z,8.05
2022-10-14T03:01:45.839Z,8.27
2022-10-14T03:04:13.371Z,8.32
2022-10-14T03:06:40.581Z,8.45
2022-10-14T03:09:08.302Z,7.80
2022-10-14T03:11:38.883Z,8.32
2022-10-14T03:14:09.191Z,8.30
2022-10-14T03:16:37.366Z,7.40
2022-10-14T03:19:04.362Z,8.43
2022-10-14T03:21:43.521Z,7.63
2022-10-14T03:24:18.016Z,9.18
2022-10-14T03:26:46.709Z,8.82
2022-10-14T03:29:15.239Z,8.45
2022-10-14T03:32:08.924Z,8.52
2022-10-14T03:35:08.633Z,8.82
2022-10-14T03:37:35.871Z,9.00
2022-10-14T03:40:04.092Z,9.10
2022-10-14T03:42:33.444Z,9.32
2022-10-14T03:45:00.772Z,9.85
2022-10-14T03:47:29.451Z,9.52
2022-10-14T03:49:56.562Z,9.20
2022-10-14T03:52:32.538Z,9.02
2022-10-14T03:55:05.729Z,8.93
2022-10-14T03:57:33.401Z,9.43
2022-10-14T04:00:01.244Z,9.80
2022-10-14T04:02:43.357Z,9.07
2022-10-14T04:05:26.474Z,9.43
2022-10-14T04:07:53.764Z,9.15
2022-10-14T04:10:21.664Z,9.10
2022-10-14T04:12:55.581Z,9.70
2022-10-14T04:15:29.499Z,9.23
2022-10-14T04:18:09.596Z,9.82
2022-10-14T04:20:38.794Z,11.35
2022-10-14T04:23:07.178Z,9.65
2022-10-14T04:25:38.294Z,14.77
2022-10-14T04:28:06.126Z,35.55
2022-10-14T04:30:56.583Z,28.60
2022-10-14T04:33:28.472Z,21.25
2022-10-14T04:36:04.235Z,10.77
2022-10-14T04:38:36.267Z,11.63
2022-10-14T04:41:06.783Z,10.48
2022-10-14T04:43:33.923Z,11.27
2022-10-14T04:46:14.830Z,10.52
2022-10-14T04:48:41.885Z,10.07
2022-10-14T04:51:08.882Z,10.32
2022-10-14T04:53:46.283Z,10.20
2022-10-14T04:56:28.266Z,10.57
2022-10-14T04:59:00.411Z,10.20
2022-10-14T05:01:47.043Z,10.48
2022-10-14T05:04:14.670Z,10.13
2022-10-14T05:06:43.739Z,11.13
2022-10-14T05:09:13.571Z,11.00
2022-10-14T05:11:40.818Z,11.40
2022-10-14T05:14:07.798Z,10.27
2022-10-14T05:16:36.906Z,10.63
2022-10-14T05:19:05.030Z,11.10
2022-10-14T05:21:34.447Z,10.77
2022-10-14T05:24:09.037Z,11.80
2022-10-14T05:26:38.647Z,12.05
2022-10-14T05:29:10.995Z,12.00
2022-10-14T05:31:39.509Z,12.25
2022-10-14T05:34:41.843Z,11.85
2022-10-14T05:37:12.473Z,11.00
2022-10-14T05:39:51.605Z,11.45
2022-10-14T05:42:22.165Z,11.93
2022-10-14T05:44:52.320Z,11.32
2022-10-14T05:47:19.349Z,10.88
2022-10-14T05:49:49.232Z,10.75
2022-10-14T05:52:17.581Z,10.88
2022-10-14T05:54:44.922Z,12.02
2022-10-14T05:57:16.243Z,12.18
2022-10-14T05:59:43.163Z,11.55
2022-10-14T06:02:12.127Z,11.98
2022-10-14T06:04:41.145Z,13.10
2022-10-14T06:07:11.667Z,11.88
2022-10-14T06:09:38.707Z,13.30
2022-10-14T06:12:07.482Z,13.77
2022-10-14T06:14:34.631Z,12.73
2022-10-14T06:17:01.557Z,13.48
2022-10-14T06:19:32.588Z,12.43
2022-10-14T06:21:59.604Z,14.90
2022-10-14T06:24:26.704Z,13.90
2022-10-14T06:26:53.779Z,15.07
2022-10-14T06:29:20.670Z,15.82
2022-10-14T06:31:47.504Z,16.42
2022-10-14T06:34:14.905Z,17.17
2022-10-14T06:36:41.797Z,17.63
2022-10-14T06:39:09.722Z,17.15
2022-10-14T06:41:36.949Z,19.10
2022-10-14T06:44:03.769Z,19.02
2022-10-14T06:46:32.106Z,19.98
2022-10-14T06:48:59.434Z,18.02
2022-10-14T06:51:26.339Z,19.17
2022-10-14T06:53:53.178Z,18.52
2022-10-14T06:56:20.258Z,17.27
2022-10-14T06:58:47.099Z,18.48
2022-10-14T07:01:14.042Z,18.95
2022-10-14T07:03:41.488Z,19.10
2022-10-14T07:06:09.612Z,18.52
2022-10-14T07:08:36.474Z,19.40
2022-10-14T07:11:04.337Z,18.67
2022-10-14T07:13:31.437Z,17.33
2022-10-14T07:15:58.330Z,16.83
2022-10-14T07:18:25.837Z,16.67
2022-10-14T07:20:52.834Z,16.75
2022-10-14T07:23:19.766Z,25.98
2022-10-14T07:25:46.799Z,24.70
2022-10-14T07:28:13.988Z,19.17
2022-10-14T07:30:40.927Z,13.32
2022-10-14T07:33:08.531Z,13.90
2022-10-14T07:35:38.106Z,12.80
2022-10-14T07:38:05.031Z,14.60
2022-10-14T07:40:32.199Z,13.40
2022-10-14T07:42:59.096Z,17.45
2022-10-14T07:45:25.915Z,13.27
2022-10-14T07:47:53.057Z,12.63
2022-10-14T07:50:20.039Z,13.73
2022-10-14T07:52:46.909Z,16.00
2022-10-14T07:55:13.946Z,14.48
2022-10-14T07:57:40.822Z,14.55
2022-10-14T08:00:08.268Z,13.75
2022-10-14T08:02:41.203Z,16.20
2022-10-14T08:07:55.540Z,13.45
2022-10-14T08:10:22.531Z,14.00
2022-10-14T08:12:49.387Z,14.13
2022-10-14T08:15:16.467Z,14.75
2022-10-14T08:17:43.366Z,14.45
2022-10-14T08:20:10.251Z,15.85
2022-10-14T08:22:37.334Z,19.73
2022-10-14T08:25:04.439Z,22.27
2022-10-14T08:27:31.608Z,15.45
2022-10-14T08:29:58.553Z,19.25
2022-10-14T08:32:25.672Z,24.55
2022-10-14T08:34:52.529Z,18.92
2022-10-14T08:37:19.618Z,16.67
2022-10-14T08:39:46.490Z,17.65
2022-10-14T08:42:36.747Z,20.80
2022-10-14T08:45:11.703Z,19.25
2022-10-14T08:47:41.913Z,21.05
2022-10-14T08:50:22.632Z,20.60
2022-10-14T08:53:21.348Z,20.17
2022-10-14T08:56:00.198Z,20.15
2022-10-14T08:58:29.028Z,20.67
2022-10-14T09:00:56.552Z,20.33
2022-10-14T09:03:33.319Z,21.17
2022-10-14T09:06:04.186Z,21.88
2022-10-14T09:08:38.524Z,24.98
2022-10-14T09:11:07.310Z,22.58
2022-10-14T09:13:40.001Z,22.98
2022-10-14T09:16:12.529Z,21.52
2022-10-14T09:18:42.501Z,21.58
2022-10-14T09:24:25.715Z,19.02
2022-10-14T09:29:40.782Z,19.52
2022-10-14T09:32:12.121Z,20.38
2022-10-14T09:34:44.629Z,19.75
2022-10-14T09:37:35.142Z,20.77
2022-10-14T09:40:25.868Z,20.08
2022-10-14T09:43:08.379Z,20.40
2022-10-14T09:45:54.143Z,21.42
2022-10-14T09:48:49.691Z,20.67
2022-10-14T09:51:24.347Z,22.13
2022-10-14T09:53:54.656Z,22.20
2022-10-14T09:56:29.478Z,22.67
2022-10-14T09:58:57.698Z,22.73
2022-10-14T10:01:26.819Z,23.13
2022-10-14T10:03:55.397Z,24.73
2022-10-14T10:06:27.850Z,23.33
2022-10-14T10:08:58.305Z,24.02
2022-10-14T10:11:31.257Z,23.95
2022-10-14T10:13:58.474Z,24.13
2022-10-14T10:16:34.841Z,23.98
2022-10-14T10:19:21.880Z,24.35
2022-10-14T10:21:48.799Z,24.60
2022-10-14T10:24:26.207Z,24.83
2022-10-14T10:26:55.844Z,25.48
2022-10-14T10:29:34.515Z,25.75
2022-10-14T10:32:17.458Z,24.63
2022-10-14T10:35:06.762Z,25.85
2022-10-14T10:37:58.265Z,23.45
2022-10-14T10:41:04.021Z,23.60
2022-10-14T10:43:40.356Z,25.10
2022-10-14T10:46:19.468Z,25.73
2022-10-14T10:49:05.409Z,24.83
2022-10-14T10:51:39.496Z,25.73
2022-10-14T10:54:06.372Z,26.15
2022-10-14T10:56:49.000Z,25.85
2022-10-14T10:59:56.375Z,26.85
2022-10-14T11:02:33.415Z,28.13
2022-10-14T11:05:26.467Z,28.00
2022-10-14T11:08:39.815Z,26.50
2022-10-14T11:11:33.667Z,25.95
2022-10-14T11:14:16.219Z,28.45
2022-10-14T11:17:11.090Z,26.98
2022-10-14T11:19:54.378Z,24.65
2022-10-14T11:22:58.799Z,25.33
2022-10-14T11:25:44.540Z,25.67
2022-10-14T11:28:21.315Z,24.08
2022-10-14T11:31:17.280Z,23.98
2022-10-14T11:34:02.525Z,23.98
2022-10-14T11:37:08.502Z,24.35
2022-10-14T11:39:57.814Z,24.92
2022-10-14T11:42:34.114Z,22.45
2022-10-14T11:45:11.331Z,23.77
2022-10-14T11:47:39.660Z,23.05
2022-10-14T11:50:23.874Z,23.45
2022-10-14T11:52:58.638Z,21.80
2022-10-14T11:55:30.286Z,22.63
2022-10-14T11:58:06.702Z,20.30
2022-10-14T12:00:35.065Z,19.52
2022-10-14T12:03:17.258Z,18.98
2022-10-14T12:05:54.182Z,20.52
2022-10-14T12:08:36.492Z,18.00
2022-10-14T12:11:07.448Z,17.65
2022-10-14T12:13:52.400Z,16.70
2022-10-14T12:16:21.688Z,17.17
2022-10-14T12:18:56.064Z,18.73
2022-10-14T12:21:49.718Z,18.83
2022-10-14T12:24:23.220Z,18.13
2022-10-14T12:26:53.142Z,17.88
2022-10-14T12:29:32.817Z,16.80
2022-10-14T12:32:05.727Z,17.50
2022-10-14T12:34:40.599Z,18.20
2022-10-14T12:37:31.607Z,16.45
2022-10-14T12:40:01.849Z,16.25
2022-10-14T12:42:39.028Z,17.33
2022-10-14T12:45:24.255Z,17.38
2022-10-14T12:48:15.095Z,18.08
2022-10-14T12:50:46.886Z,16.92
2022-10-14T12:53:34.039Z,16.92
2022-10-14T12:56:03.514Z,18.20
2022-10-14T12:58:42.106Z,18.80
2022-10-14T13:01:16.520Z,18.48
2022-10-14T13:03:55.447Z,19.40
2022-10-14T13:06:32.190Z,18.15
2022-10-14T13:09:11.247Z,18.67
2022-10-14T13:12:01.387Z,18.13
2022-10-14T13:14:30.126Z,20.08
2022-10-14T13:16:58.650Z,20.20
2022-10-14T13:19:34.413Z,18.38
2022-10-14T13:22:03.671Z,18.98
2022-10-14T13:24:44.415Z,20.67
2022-10-14T13:27:20.045Z,17.85
2022-10-14T13:29:52.955Z,19.63
2022-10-14T13:32:45.180Z,20.08
2022-10-14T13:35:26.451Z,20.38
2022-10-14T13:38:15.625Z,20.77
2022-10-14T13:40:48.742Z,20.27
2022-10-14T13:43:22.907Z,20.38
2022-10-14T13:46:05.861Z,20.10
2022-10-14T13:48:40.184Z,21.52
2022-10-14T13:51:31.532Z,45.15
2022-10-14T13:54:11.342Z,34.03
2022-10-14T13:56:38.244Z,29.38
2022-10-14T13:59:43.798Z,23.67
2022-10-14T14:02:15.574Z,21.45
2022-10-14T14:04:48.092Z,21.10
2022-10-14T14:07:58.482Z,21.90
2022-10-14T14:10:07.739Z,22.85
2022-10-14T14:12:34.778Z,31.95
2022-10-14T14:15:01.832Z,26.55
2022-10-14T14:17:31.672Z,29.08
2022-10-14T14:19:58.563Z,51.90
2022-10-14T14:22:29.691Z,87.43
2022-10-14T14:25:33.414Z,60.15
2022-10-14T14:28:05.803Z,47.33
2022-10-14T14:30:35.235Z,45.38
2022-10-14T14:33:11.366Z,29.10
2022-10-14T14:35:38.525Z,43.85
2022-10-14T14:38:05.456Z,54.15
2022-10-14T14:40:32.430Z,23.13
2022-10-14T14:43:01.460Z,30.85
2022-10-14T14:45:30.898Z,24.50
2022-10-14T14:47:59.335Z,32.75
2022-10-14T14:50:31.176Z,24.88
2022-10-14T14:53:03.464Z,28.92
2022-10-14T14:55:53.992Z,27.52
2022-10-14T14:58:32.609Z,23.38
2022-10-14T15:00:59.909Z,21.27
2022-10-14T15:03:29.333Z,21.98
2022-10-14T15:05:59.715Z,24.08
2022-10-14T15:08:31.211Z,24.23
2022-10-14T15:10:58.928Z,22.42
2022-10-14T15:13:29.199Z,22.25
2022-10-14T15:15:56.708Z,26.13
2022-10-14T15:18:28.077Z,26.10
2022-10-14T15:21:11.647Z,28.23
2022-10-14T15:24:03.802Z,21.58
2022-10-14T15:26:36.343Z,26.10
2022-10-14T15:29:07.772Z,23.10
2022-10-14T15:31:35.962Z,21.70
2022-10-14T15:34:03.614Z,22.42
2022-10-14T15:36:32.717Z,23.55
2022-10-14T15:39:01.527Z,22.85
2022-10-14T15:41:29.487Z,20.95
2022-10-14T15:43:56.520Z,21.42
2022-10-14T15:46:42.022Z,21.70
2022-10-14T15:49:15.513Z,21.88
2022-10-14T15:51:42.451Z,22.05
2022-10-14T15:54:11.182Z,24.30
2022-10-14T15:56:39.362Z,22.70
2022-10-14T15:59:06.214Z,27.98
2022-10-14T16:01:35.438Z,26.33
2022-10-14T16:04:03.925Z,24.65
2022-10-14T16:06:32.666Z,25.30
2022-10-14T16:08:59.713Z,26.15
2022-10-14T16:11:28.617Z,26.17
2022-10-14T16:13:55.634Z,26.25
2022-10-14T16:16:32.366Z,26.13
2022-10-14T16:19:02.499Z,25.67
2022-10-14T16:21:29.772Z,26.77
2022-10-14T16:23:58.689Z,26.98
2022-10-14T16:26:25.775Z,99.45
2022-10-14T16:28:52.996Z,134.32
2022-10-14T16:31:21.409Z,117.43
2022-10-14T16:33:57.045Z,33.75
2022-10-14T16:36:26.172Z,73.88
2022-10-14T16:38:54.906Z,49.92
2022-10-14T16:41:22.140Z,32.42
2022-10-14T16:43:49.353Z,29.15
2022-10-14T16:46:17.577Z,109.25
2022-10-14T16:48:46.851Z,44.10
2022-10-14T16:51:14.943Z,45.35
2022-10-14T16:53:41.838Z,51.95
2022-10-14T16:56:30.553Z,49.80
2022-10-14T16:58:58.392Z,41.50
2022-10-14T17:01:25.288Z,34.78
2022-10-14T17:03:52.208Z,30.35
2022-10-14T17:06:23.901Z,31.20
2022-10-14T17:08:51.521Z,30.92
2022-10-14T17:11:18.833Z,29.95
2022-10-14T17:13:45.824Z,30.80
2022-10-14T17:16:12.774Z,61.95
2022-10-14T17:18:41.397Z,37.65
2022-10-14T17:21:15.830Z,32.20
2022-10-14T17:23:44.265Z,29.92
2022-10-14T17:26:13.963Z,31.92
2022-10-14T17:28:41.835Z,38.08
2022-10-14T17:31:16.337Z,36.78
2022-10-14T17:33:43.362Z,42.17
2022-10-14T17:36:18.082Z,36.60
2022-10-14T17:38:47.316Z,43.03
2022-10-14T17:41:15.125Z,43.78
2022-10-14T17:43:42.042Z,132.80
2022-10-14T17:46:14.020Z,105.53
2022-10-14T17:48:42.439Z,254.82
2022-10-14T17:51:11.261Z,250.27
2022-10-14T17:53:38.911Z,331.23
2022-10-14T17:56:14.536Z,201.93
2022-10-14T17:58:41.795Z,153.80
2022-10-14T18:01:14.287Z,154.18
2022-10-14T18:03:43.136Z,117.40
2022-10-14T18:06:16.339Z,167.30
2022-10-14T18:08:44.645Z,161.98
2022-10-14T18:11:13.118Z,115.13
2022-10-14T18:16:14.290Z,107.05
2022-10-14T18:18:41.952Z,39.53
2022-10-14T18:21:09.816Z,45.75
2022-10-14T18:23:39.223Z,88.13
2022-10-14T18:26:09.481Z,67.13
2022-10-14T18:28:42.189Z,132.40
2022-10-14T18:31:19.713Z,143.55
2022-10-14T18:33:48.426Z,157.98
2022-10-14T18:36:22.734Z,127.35
2022-10-14T18:38:54.029Z,80.90
2022-10-14T18:41:22.238Z,104.32
2022-10-14T18:43:49.315Z,100.10
2022-10-14T18:46:17.526Z,104.78
2022-10-14T18:48:47.145Z,71.35
2022-10-14T18:51:15.412Z,98.38
2022-10-14T18:53:45.055Z,66.63
2022-10-14T18:56:17.080Z,89.30
2022-10-14T18:58:49.742Z,61.25
2022-10-14T19:01:17.103Z,70.95
2022-10-14T19:03:44.785Z,78.93
2022-10-14T19:06:13.712Z,65.85
2022-10-14T19:08:42.138Z,36.88
2022-10-14T19:11:16.450Z,56.28
2022-10-14T19:13:45.309Z,110.65
2022-10-14T19:16:17.421Z,82.45
2022-10-14T19:18:44.638Z,143.95
2022-10-14T19:21:13.509Z,40.88
2022-10-14T19:23:42.783Z,70.28
2022-10-14T19:26:18.481Z,31.88
2022-10-14T19:28:45.588Z,29.52
2022-10-14T19:31:16.042Z,29.05
2022-10-14T19:33:44.672Z,34.45
2022-10-14T19:36:13.782Z,29.08
2022-10-14T19:38:45.477Z,27.77
2022-10-14T19:41:12.466Z,28.83
2022-10-14T19:43:39.574Z,29.20
2022-10-14T19:46:08.446Z,27.35
2022-10-14T19:48:35.392Z,32.47
2022-10-14T19:51:06.907Z,48.13
2022-10-14T19:53:34.485Z,55.08
2022-10-14T19:56:05.894Z,69.68
2022-10-14T19:58:32.755Z,31.48
2022-10-14T20:01:14.402Z,33.42
2022-10-14T20:03:42.076Z,28.30
2022-10-14T20:06:11.081Z,30.15
2022-10-14T20:08:38.441Z,32.50
2022-10-14T20:11:08.067Z,33.28
2022-10-14T20:13:35.201Z,52.90
2022-10-14T20:16:02.488Z,34.47
2022-10-14T20:18:29.791Z,34.42
2022-10-14T20:20:57.336Z,41.92
2022-10-14T20:23:25.340Z,34.38
2022-10-14T20:25:52.274Z,31.17
2022-10-14T20:28:19.746Z,30.23
2022-10-14T20:30:47.594Z,26.88
2022-10-14T20:33:14.419Z,27.80
2022-10-14T20:35:41.302Z,37.88
2022-10-14T20:38:08.491Z,30.25
2022-10-14T20:40:36.228Z,42.38
2022-10-14T20:43:03.963Z,41.45
2022-10-14T20:45:31.031Z,127.72
2022-10-14T20:47:57.865Z,127.40
2022-10-14T20:50:24.766Z,39.30
2022-10-14T20:52:51.786Z,59.97
2022-10-14T20:55:18.548Z,80.63
2022-10-14T20:57:46.269Z,44.63
2022-10-14T21:00:13.807Z,54.50
2022-10-14T21:02:40.865Z,61.58
2022-10-14T21:05:08.181Z,49.65
2022-10-14T21:07:35.161Z,55.47
2022-10-14T21:10:02.480Z,43.25
2022-10-14T21:12:29.272Z,47.67
2022-10-14T21:14:56.261Z,151.07
2022-10-14T21:17:23.101Z,108.65
2022-10-14T21:19:49.872Z,153.88
2022-10-14T21:22:16.933Z,36.28
2022-10-14T21:24:43.775Z,34.00
2022-10-14T21:27:10.707Z,25.48
2022-10-14T21:29:37.735Z,25.92
2022-10-14T21:32:05.078Z,24.85
2022-10-14T21:34:31.898Z,25.73
2022-10-14T21:36:58.896Z,29.10
2022-10-14T21:39:26.211Z,24.55
2022-10-14T21:41:53.210Z,23.38
2022-10-14T21:44:21.214Z,23.08
2022-10-14T21:46:48.818Z,23.50
2022-10-14T21:49:15.867Z,22.67
2022-10-14T21:51:42.871Z,24.23
2022-10-14T21:54:12.347Z,22.98
2022-10-14T21:56:39.429Z,22.42
2022-10-14T21:59:07.058Z,27.52
2022-10-14T22:01:34.067Z,23.85
2022-10-14T22:04:06.076Z,21.35
2022-10-14T22:06:35.811Z,23.77
2022-10-14T22:09:05.501Z,21.90
2022-10-14T22:11:33.992Z,21.17
2022-10-14T22:14:02.507Z,21.27
2022-10-14T22:16:29.788Z,23.30
2022-10-14T22:18:58.706Z,23.27
2022-10-14T22:21:27.981Z,21.83
2022-10-14T22:23:55.030Z,24.67
2022-10-14T22:26:24.985Z,22.83
2022-10-14T22:29:04.295Z,63.95
2022-10-14T22:31:35.577Z,30.80
2022-10-14T22:34:04.784Z,30.10
2022-10-14T22:36:32.947Z,79.85
2022-10-14T22:39:01.571Z,74.65
2022-10-14T22:41:34.810Z,70.38
2022-10-14T22:44:03.590Z,34.35
2022-10-14T22:46:33.672Z,27.25
2022-10-14T22:49:01.869Z,23.73
2022-10-14T22:51:32.164Z,23.63
2022-10-14T22:53:59.380Z,23.95
2022-10-14T22:56:27.764Z,23.38
2022-10-14T22:59:03.916Z,21.92
2022-10-14T23:01:31.444Z,21.50
2022-10-14T23:03:58.970Z,23.35
2022-10-14T23:06:26.505Z,22.48
2022-10-14T23:08:54.439Z,24.42
2022-10-14T23:11:23.416Z,23.25
2022-10-14T23:13:50.676Z,23.40
2022-10-14T23:16:19.869Z,23.10
2022-10-14T23:18:47.156Z,22.10
2022-10-14T23:21:18.509Z,22.55
2022-10-14T23:23:46.429Z,21.48
2022-10-14T23:26:16.177Z,22.88
2022-10-14T23:28:43.281Z,33.33
2022-10-14T23:31:18.019Z,32.35
2022-10-14T23:33:44.928Z,53.60
2022-10-14T23:36:13.634Z,104.95
2022-10-14T23:38:40.837Z,90.07
2022-10-14T23:41:08.873Z,82.10
2022-10-14T23:43:35.943Z,64.85
2022-10-14T23:46:03.312Z,43.70
2022-10-14T23:48:30.162Z,46.33
2022-10-14T23:50:57.409Z,28.83
2022-10-14T23:53:26.310Z,26.52
2022-10-14T23:55:54.113Z,25.85
2022-10-14T23:58:21.669Z,26.08
